« Back
NWS Peachtree City, Ga » Text Product » CSG Terminal Aerodrome Forecast


Printer-friendly Version
Current Version              Previous Versions:   1  2  3  4  5  6  7  8  9  

Terminal Aerodrome Forecast

777
FTUS42 KFFC 290521
TAFCSG
TAF
KCSG 290521Z 2906/3006 VRB03KT P6SM BKN120
     FM290900 VRB03KT P6SM SCT150
      TEMPO 2911/2913 5SM BR SCT005
     FM291400 26005KT P6SM SCT040 SCT250 PROB30 2918/2923 VRB10G25KT
      4SM TSRA BR BKN035CB
     FM300000 24003KT P6SM SCT080=

USA.gov is the U.S. government's official web portal to all federal, state and local government web resources and services.